Portada
METAR-TAF:

METAR-TAF

Aeroports :

Mae Hong Son, Tailàndia

latitud: 19-18N, longitud: 097-50E, altitud: 267 m

Observació

L'informe es va fer fa 18 minuts, a les 01:00 UTC
Vent 2 kt amb direcció variable
Temperatura 26°C
Humitat 79%
Pressió 1012 hPa
Visibilitat: 7000 m
Escasses núvols a una alçada de 2000 ft, Cumulus congestus.
Cel ennuvolat a una alçada de 2500 ft

METAR: VTCH 240100Z VRB02KT 7000 FEW020TCU BKN025 26/22 Q1012

Hora: 08:18 (01:18 UTC)

Pronòstic

L'informe es va fer fa 2 hores i 18 minuts, a les 23:00 UTC
Pronòstic vàlid del 24 a les 00 UTC al 24 a les 24 UTC
Vent 5 kt del Oest
Visibilitat 10 km o més
Escasses núvols a una alçada de 3000 ft
Temporalment
l' 24 a les 06 UTC al 24 a les 12 UTC
Vent 15 kt amb direcció variable amb ràfegues de 25 kt
Visibilitat: 5000 m
Escasses núvols a una alçada de 2500 ft, Cumulonimbus.
Cel ennuvolat a una alçada de 3000 ft
tempesta, pluja

TAF: VTCH 232300Z 2400/2424 26005KT 9999 FEW030 TEMPO 2406/2412 VRB15G25KT 5000 TSRA FEW025CB BKN030

Observacions i pronòstics meteorològics de més de 4000 aeroports (METAR i TAF).

Les estacions disponibles són els punts grocs i vermells al mapa.

Posi el ratolí al punt desitjat per veure el nom de l'estació.

Feu clic per veure les observacions i els pronòstics meteorològics.

Per canviar el mapa: feu clic els botons verds amb una creu de color negre per apropar; al botó verd amb un guió per allunyar la imatge; o en les fletxes verdes per a mapes adjacents.


METAR-TAF: